Time;durP1;ratioP1;P1;durP2;ratioP2;P2;SDS_P1;SDS_P2;PMS_P1;PMS_P2;Temp;Humidity;BMP_temperature;BMP_pressure;BME280_temperature;BME280_humidity;BME280_pressure;Samples;Min_cycle;Max_cycle;Signal;HPM_P1;HPM_P2
2021/12/11 00:01:18;;;;;;;1.15;1.00;;;2.70;99.90;;;;;;4939707;29;20146;-92
2021/12/11 00:03:54;;;;;;;2.33;1.10;;;2.70;99.90;;;;;;4941777;29;20039;-91
2021/12/11 00:06:38;;;;;;;1.50;0.70;;;1.90;99.90;;;;;;4941061;29;20023;-92
2021/12/11 00:09:27;;;;;;;10.73;3.50;;;0.60;99.90;;;;;;4937675;29;20035;-94
2021/12/11 00:12:22;;;;;;;16.70;1.25;;;2.60;99.90;;;;;;4940042;29;20031;-94
2021/12/11 00:15:07;;;;;;;10.25;1.10;;;2.70;99.90;;;;;;4933971;29;20480;-84
2021/12/11 00:17:34;;;;;;;8.90;0.95;;;2.70;99.90;;;;;;4918669;29;20087;-90
2021/12/11 00:20:02;;;;;;;1.27;0.90;;;2.80;99.90;;;;;;4917988;29;20028;-92
2021/12/11 00:22:31;;;;;;;0.67;0.63;;;3.00;99.90;;;;;;4918317;29;20086;-93
2021/12/11 00:25:05;;;;;;;1.05;0.73;;;4.70;99.90;;;;;;4930060;29;20031;-87
2021/12/11 00:27:33;;;;;;;4.05;0.93;;;2.60;99.90;;;;;;4937661;29;20027;-90
2021/12/11 00:29:59;;;;;;;1.83;0.75;;;3.10;99.90;;;;;;4943614;29;20048;-85
2021/12/11 00:32:30;;;;;;;0.55;0.55;;;2.60;99.90;;;;;;4958896;29;20020;-93
2021/12/11 00:35:03;;;;;;;0.30;0.30;;;2.60;99.90;;;;;;4937807;29;20023;-91
2021/12/11 00:37:29;;;;;;;0.80;0.80;;;2.60;99.90;;;;;;4939756;29;20440;-94
2021/12/11 00:40:20;;;;;;;1.88;0.88;;;2.60;99.90;;;;;;4956359;29;20034;-90
2021/12/11 00:42:51;;;;;;;3.67;1.15;;;1.30;99.90;;;;;;4936833;29;20028;-93
2021/12/11 00:45:21;;;;;;;3.28;0.93;;;3.20;99.90;;;;;;4936272;29;20031;-86
2021/12/11 00:47:54;;;;;;;1.15;1.10;;;2.70;99.90;;;;;;4936784;29;20083;-90
2021/12/11 00:50:25;;;;;;;4.22;0.73;;;2.70;99.90;;;;;;4936898;28;20046;-91
2021/12/11 00:52:57;;;;;;;0.45;0.45;;;3.00;99.90;;;;;;4938795;29;20118;-91
2021/12/11 00:55:40;;;;;;;0.93;0.55;;;1.60;99.90;;;;;;4956113;29;20110;-87
2021/12/11 00:58:21;;;;;;;0.55;0.50;;;2.70;99.90;;;;;;4964892;29;20031;-94
2021/12/11 01:00:55;;;;;;;0.57;0.50;;;1.30;99.90;;;;;;4963880;28;20055;-92
2021/12/11 01:03:33;;;;;;;4.38;1.00;;;2.70;99.90;;;;;;4941029;29;20131;-90
2021/12/11 01:06:07;;;;;;;3.03;1.33;;;2.80;99.90;;;;;;4940185;29;20110;-93
2021/12/11 01:08:38;;;;;;;4.07;0.80;;;2.80;99.90;;;;;;4941230;29;20031;-91
2021/12/11 01:11:23;;;;;;;1.48;0.73;;;2.80;99.90;;;;;;4955347;29;20047;-92
2021/12/11 01:14:05;;;;;;;1.27;0.57;;;2.80;99.90;;;;;;4932640;29;20066;-88
2021/12/11 01:16:32;;;;;;;3.03;1.38;;;;;;;;;;4908571;29;20061;-85
2021/12/11 01:19:00;;;;;;;1.45;1.00;;;2.90;99.90;;;;;;4918259;29;20042;-91
2021/12/11 01:24:42;;;;;;;0.57;0.47;;;2.90;99.90;;;;;;4962568;29;20023;-88
2021/12/11 01:27:11;;;;;;;0.50;0.50;;;2.80;99.90;;;;;;4943882;29;20023;-90
2021/12/11 01:29:39;;;;;;;8.98;1.35;;;3.10;99.90;;;;;;4953260;29;20047;-91
2021/12/11 01:32:14;;;;;;;0.75;0.63;;;2.00;99.90;;;;;;4962841;29;20043;-93
2021/12/11 01:34:42;;;;;;;1.35;0.50;;;2.90;99.90;;;;;;4941059;29;20030;-92
2021/12/11 01:37:09;;;;;;;0.65;0.65;;;2.90;99.90;;;;;;4926522;29;20489;-93
2021/12/11 01:39:38;;;;;;;0.32;0.32;;;1.60;99.90;;;;;;4955919;29;20027;-81
2021/12/11 01:42:23;;;;;;;0.65;0.65;;;3.00;99.90;;;;;;4950719;29;20031;-79
2021/12/11 01:45:00;;;;;;;1.15;0.70;;;2.80;99.90;;;;;;4952906;29;20035;-92
2021/12/11 01:47:38;;;;;;;1.65;0.47;;;2.80;99.90;;;;;;4944610;29;20126;-94
2021/12/11 01:50:28;;;;;;;2.58;0.63;;;1.30;99.90;;;;;;4936137;29;20115;-83
2021/12/11 01:53:05;;;;;;;0.70;0.70;;;2.90;99.90;;;;;;4935232;29;20054;-88
2021/12/11 01:55:38;;;;;;;0.35;0.35;;;1.80;99.90;;;;;;4942539;28;20004;-89
2021/12/11 01:58:09;;;;;;;1.38;0.93;;;1.10;99.90;;;;;;4961875;28;20047;-86
2021/12/11 02:00:48;;;;;;;3.33;0.90;;;2.80;99.90;;;;;;4923547;29;20031;-94
2021/12/11 02:03:18;;;;;;;;;;;1.20;99.90;;;;;;4944339;28;20125;-80
2021/12/11 02:05:45;;;;;;;0.77;0.65;;;2.70;99.90;;;;;;4954171;28;19977;-87
2021/12/11 02:08:58;;;;;;;1.65;1.13;;;2.70;99.90;;;;;;4938970;29;20027;-94
2021/12/11 02:11:27;;;;;;;3.10;0.60;;;2.90;99.90;;;;;;4952645;29;20027;-93
2021/12/11 02:14:05;;;;;;;0.43;0.38;;;2.20;99.90;;;;;;4934888;29;20452;-81
2021/12/11 02:16:45;;;;;;;2.47;1.23;;;2.70;99.90;;;;;;4951643;29;20023;-92
2021/12/11 02:19:40;;;;;;;0.43;0.43;;;2.70;99.90;;;;;;4935276;29;20035;-81
2021/12/11 02:22:13;;;;;;;1.05;0.95;;;2.70;99.90;;;;;;4949716;29;20047;-78
2021/12/11 02:24:48;;;;;;;1.05;0.77;;;2.60;99.90;;;;;;4920963;29;20115;-79
2021/12/11 02:27:22;;;;;;;1.65;0.60;;;2.60;99.90;;;;;;4950154;29;20031;-79
2021/12/11 02:30:20;;;;;;;0.40;0.40;;;2.70;99.90;;;;;;4933539;29;20034;-79
2021/12/11 02:33:07;;;;;;;0.52;0.52;;;2.60;99.90;;;;;;4932268;29;20271;-79
2021/12/11 02:35:37;;;;;;;0.85;0.70;;;2.60;99.90;;;;;;4932369;29;20023;-78
2021/12/11 02:38:14;;;;;;;;;;;2.60;99.90;;;;;;4932988;29;20670;-79
2021/12/11 02:40:43;;;;;;;1.17;0.63;;;2.60;99.90;;;;;;4949710;29;19914;-79
2021/12/11 02:43:31;;;;;;;1.25;0.77;;;2.70;99.90;;;;;;4949335;29;20567;-78
2021/12/11 02:45:59;;;;;;;4.70;0.60;;;2.70;99.90;;;;;;4932509;29;20035;-79
2021/12/11 02:48:35;;;;;;;3.05;0.80;;;2.70;99.90;;;;;;4949563;29;20054;-79
2021/12/11 02:51:14;;;;;;;0.70;0.70;;;2.80;99.90;;;;;;4888018;29;1229953;-79
2021/12/11 02:53:51;;;;;;;0.88;0.88;;;2.70;99.90;;;;;;4933350;29;20046;-79
2021/12/11 02:56:30;;;;;;;0.75;0.70;;;2.70;99.90;;;;;;4933399;29;20019;-79
2021/12/11 02:58:59;;;;;;;4.80;1.17;;;2.70;99.90;;;;;;4951080;29;20023;-79
2021/12/11 03:01:36;;;;;;;0.77;0.77;;;2.70;99.90;;;;;;4950493;29;20031;-79
2021/12/11 03:04:19;;;;;;;1.30;0.57;;;2.80;99.90;;;;;;4950502;29;20027;-79
2021/12/11 03:06:48;;;;;;;3.47;1.02;;;2.90;99.90;;;;;;4933132;29;20533;-79
2021/12/11 03:09:18;;;;;;;0.60;0.60;;;2.80;99.90;;;;;;4933479;29;20114;-79
2021/12/11 03:11:45;;;;;;;1.05;0.75;;;2.90;99.90;;;;;;4950193;29;20019;-79
2021/12/11 03:14:14;;;;;;;2.80;0.60;;;2.50;99.90;;;;;;4951012;29;20059;-79
2021/12/11 03:16:41;;;;;;;1.95;1.30;;;2.80;99.90;;;;;;4932837;29;20027;-79
2021/12/11 03:19:10;;;;;;;3.60;0.75;;;2.90;99.90;;;;;;4933137;29;20024;-78
2021/12/11 03:21:37;;;;;;;0.68;0.68;;;2.90;99.90;;;;;;4950872;29;20236;-79
2021/12/11 03:24:05;;;;;;;0.95;0.75;;;2.90;99.90;;;;;;4950334;28;20102;-79
2021/12/11 03:26:30;;;;;;;1.77;1.67;;;2.90;99.90;;;;;;4954263;29;20042;-79
2021/12/11 03:28:56;;;;;;;0.75;0.70;;;2.80;99.90;;;;;;4955199;29;20024;-79
2021/12/11 03:31:22;;;;;;;0.60;0.60;;;2.80;99.90;;;;;;4954221;29;20039;-79
2021/12/11 03:33:55;;;;;;;0.70;0.65;;;2.80;99.90;;;;;;4936496;29;20118;-79
2021/12/11 03:36:24;;;;;;;4.93;2.38;;;2.90;99.90;;;;;;4954374;29;20029;-79
2021/12/11 03:38:54;;;;;;;0.30;0.30;;;2.80;99.90;;;;;;4937555;29;20035;-79
2021/12/11 03:41:21;;;;;;;0.75;0.75;;;2.90;99.90;;;;;;4954265;29;20035;-79
2021/12/11 03:43:48;;;;;;;1.88;1.17;;;2.90;99.90;;;;;;4935824;29;20224;-79
2021/12/11 03:46:14;;;;;;;2.13;0.95;;;2.90;99.90;;;;;;4936844;29;20031;-79
2021/12/11 03:48:54;;;;;;;1.35;0.88;;;2.90;99.90;;;;;;4936310;29;20106;-79
2021/12/11 03:51:23;;;;;;;1.15;1.15;;;3.50;99.90;;;;;;4937367;29;20057;-81
2021/12/11 03:53:49;;;;;;;1.80;0.80;;;2.90;99.90;;;;;;4937214;29;20023;-79
2021/12/11 03:56:16;;;;;;;1.17;0.95;;;2.80;99.90;;;;;;4953257;29;20038;-79
2021/12/11 03:58:49;;;;;;;1.02;0.60;;;2.90;99.90;;;;;;4935814;29;20020;-79
2021/12/11 04:01:24;;;;;;;1.02;0.88;;;2.80;99.90;;;;;;4936165;29;20023;-79
2021/12/11 04:03:53;;;;;;;0.30;0.30;;;2.80;99.90;;;;;;4936127;29;20416;-79
2021/12/11 04:06:20;;;;;;;0.32;0.32;;;2.90;99.90;;;;;;4953370;29;20098;-79
2021/12/11 04:08:46;;;;;;;0.60;0.60;;;2.90;99.90;;;;;;4936137;29;20357;-79
2021/12/11 04:11:19;;;;;;;0.40;0.40;;;2.90;99.90;;;;;;4954488;29;20047;-79
2021/12/11 04:13:47;;;;;;;0.75;0.75;;;2.80;99.90;;;;;;4954485;29;20034;-79
2021/12/11 04:16:16;;;;;;;0.28;0.28;;;2.90;99.90;;;;;;4954369;29;20126;-78
2021/12/11 04:18:42;;;;;;;4.53;0.50;;;2.90;99.90;;;;;;4937403;29;20059;-79
2021/12/11 04:21:08;;;;;;;0.88;0.63;;;2.80;99.90;;;;;;4937338;29;20051;-79
2021/12/11 04:23:34;;;;;;;2.63;0.82;;;2.90;99.90;;;;;;4954510;29;20023;-78
2021/12/11 04:26:00;;;;;;;1.90;0.63;;;2.80;99.90;;;;;;4936802;29;20031;-79
2021/12/11 04:28:31;;;;;;;2.10;0.75;;;2.80;99.90;;;;;;4954292;29;20095;-79
2021/12/11 04:31:04;;;;;;;0.50;0.50;;;2.80;99.90;;;;;;4954289;29;20399;-78
2021/12/11 04:33:37;;;;;;;0.80;0.60;;;2.90;99.90;;;;;;4954136;29;20031;-79
2021/12/11 04:36:05;;;;;;;0.30;0.30;;;2.80;99.90;;;;;;4936202;29;20460;-79
2021/12/11 04:38:31;;;;;;;0.35;0.35;;;2.80;99.90;;;;;;4937256;29;20038;-79
2021/12/11 04:40:59;;;;;;;0.15;0.15;;;2.80;99.90;;;;;;4937637;29;20019;-78
2021/12/11 04:43:26;;;;;;;0.45;0.40;;;2.80;99.90;;;;;;4953987;29;20024;-79
2021/12/11 04:45:59;;;;;;;0.55;0.55;;;2.80;99.90;;;;;;4954232;29;20019;-79
2021/12/11 04:48:41;;;;;;;2.25;0.60;;;2.80;99.90;;;;;;4936252;29;20034;-79
2021/12/11 04:51:26;;;;;;;0.98;0.45;;;2.70;99.90;;;;;;4936482;29;20062;-79
2021/12/11 05:02:57;;;;;;;0.20;0.20;;;2.50;99.90;;;;;;4953358;29;20027;-79
2021/12/11 05:07:25;;;;;;;0.82;0.68;;;2.50;99.90;;;;;;4953887;29;20256;-80
2021/12/11 05:10:04;;;;;;;0.85;0.40;;;2.50;99.90;;;;;;4935837;29;20055;-79
2021/12/11 05:12:35;;;;;;;1.45;1.35;;;2.40;99.90;;;;;;4953480;29;20079;-79
2021/12/11 05:15:13;;;;;;;3.42;1.00;;;2.40;99.90;;;;;;4936001;29;20086;-79
2021/12/11 05:17:39;;;;;;;0.32;0.32;;;2.40;99.90;;;;;;4936357;29;20569;-79
2021/12/11 05:20:07;;;;;;;0.70;0.43;;;2.40;99.90;;;;;;4936772;29;20207;-79
2021/12/11 05:22:33;;;;;;;0.82;0.80;;;2.30;99.90;;;;;;4935766;29;20038;-79
2021/12/11 05:24:58;;;;;;;4.43;0.57;;;2.30;99.90;;;;;;4953363;29;20027;-78
2021/12/11 05:27:25;;;;;;;0.40;0.40;;;2.20;99.90;;;;;;4953037;29;20495;-78
2021/12/11 05:29:52;;;;;;;0.40;0.40;;;2.20;99.90;;;;;;4935943;29;20471;-78
2021/12/11 05:32:21;;;;;;;0.40;0.40;;;2.20;99.90;;;;;;4936860;29;20050;-79
2021/12/11 05:34:47;;;;;;;2.50;0.50;;;2.10;99.90;;;;;;4936415;29;20063;-78
2021/12/11 05:37:13;;;;;;;0.60;0.43;;;2.10;99.90;;;;;;4936437;29;20074;-78
2021/12/11 05:39:40;;;;;;;1.15;0.47;;;2.10;99.90;;;;;;4935784;29;20131;-78
2021/12/11 05:42:06;;;;;;;0.47;0.47;;;2.10;99.90;;;;;;4935493;29;20152;-78
2021/12/11 05:44:32;;;;;;;2.42;1.00;;;2.10;99.90;;;;;;4936137;29;20501;-78
2021/12/11 05:46:58;;;;;;;0.82;0.60;;;2.00;99.90;;;;;;4952249;28;20092;-78
2021/12/11 05:49:25;;;;;;;2.65;0.73;;;2.00;99.90;;;;;;4935189;29;20067;-78
2021/12/11 05:51:52;;;;;;;4.10;0.57;;;2.00;99.90;;;;;;4935164;29;20051;-78
2021/12/11 05:54:23;;;;;;;0.95;0.60;;;2.00;99.90;;;;;;4952593;29;20035;-79
2021/12/11 05:56:53;;;;;;;0.20;0.20;;;2.00;99.90;;;;;;4952931;29;20033;-78
2021/12/11 05:59:19;;;;;;;0.50;0.50;;;2.00;99.90;;;;;;4935918;29;20423;-80
2021/12/11 06:01:53;;;;;;;0.32;0.32;;;2.00;99.90;;;;;;4935169;29;20035;-78
2021/12/11 06:04:24;;;;;;;0.28;0.28;;;2.00;99.90;;;;;;4953388;29;20026;-79
2021/12/11 06:06:50;;;;;;;1.00;0.55;;;2.00;99.90;;;;;;4953793;29;20034;-79
2021/12/11 06:09:19;;;;;;;0.98;0.32;;;2.00;99.90;;;;;;4934704;29;20020;-77
2021/12/11 06:11:47;;;;;;;0.38;0.30;;;2.00;99.90;;;;;;4935986;29;20035;-77
2021/12/11 06:14:13;;;;;;;0.30;0.30;;;2.00;99.90;;;;;;4952809;29;20019;-78
2021/12/11 06:16:39;;;;;;;0.38;0.32;;;2.00;99.90;;;;;;4952231;29;20515;-78
2021/12/11 06:19:06;;;;;;;0.60;0.57;;;2.00;99.90;;;;;;4935857;29;20016;-79
2021/12/11 06:21:33;;;;;;;0.57;0.57;;;1.90;99.90;;;;;;4952469;29;20420;-78
2021/12/11 06:24:02;;;;;;;2.45;0.50;;;2.00;99.90;;;;;;4935205;29;20027;-78
2021/12/11 06:26:28;;;;;;;1.52;0.90;;;1.90;99.90;;;;;;4935479;29;20089;-78
2021/12/11 06:28:54;;;;;;;0.90;0.60;;;1.90;99.90;;;;;;4935186;29;20031;-80
2021/12/11 06:31:20;;;;;;;0.43;0.43;;;1.90;99.90;;;;;;4952258;29;20035;-78
2021/12/11 06:33:48;;;;;;;0.13;0.13;;;1.90;99.90;;;;;;4952001;29;20547;-78
2021/12/11 06:36:15;;;;;;;0.15;0.15;;;1.90;99.90;;;;;;4935430;29;20527;-79
2021/12/11 06:38:44;;;;;;;0.55;0.55;;;1.90;99.90;;;;;;4952420;29;20038;-78
2021/12/11 06:41:13;;;;;;;1.52;0.50;;;1.90;99.90;;;;;;4952624;29;20118;-78
2021/12/11 06:43:40;;;;;;;0.20;0.17;;;1.90;99.90;;;;;;4935328;29;20031;-78
2021/12/11 06:46:06;;;;;;;0.15;0.15;;;1.90;99.90;;;;;;4935600;29;20031;-79
2021/12/11 06:48:34;;;;;;;0.70;0.70;;;1.90;99.90;;;;;;4935111;29;20085;-78
2021/12/11 06:51:00;;;;;;;0.20;0.20;;;1.90;99.90;;;;;;4952334;28;20063;-78
2021/12/11 06:53:43;;;;;;;0.95;0.40;;;2.00;99.90;;;;;;4934994;29;20070;-82
2021/12/11 06:56:11;;;;;;;0.32;0.32;;;2.00;99.90;;;;;;4952034;29;20024;-79
2021/12/11 06:58:37;;;;;;;0.52;0.45;;;2.00;99.90;;;;;;4935656;28;20024;-78
2021/12/11 07:01:06;;;;;;;0.50;0.50;;;2.00;99.90;;;;;;4955688;29;20046;-79
2021/12/11 07:03:32;;;;;;;0.38;0.38;;;2.00;99.90;;;;;;4956540;29;20031;-78
2021/12/11 07:05:58;;;;;;;0.95;0.40;;;2.00;99.90;;;;;;4955956;29;20028;-78
2021/12/11 07:08:26;;;;;;;0.13;0.13;;;2.00;99.90;;;;;;4937984;29;20195;-78
2021/12/11 07:10:52;;;;;;;0.35;0.35;;;2.10;99.90;;;;;;4956247;29;20039;-78
2021/12/11 07:13:18;;;;;;;1.42;0.63;;;2.00;99.90;;;;;;4938441;29;20472;-78
2021/12/11 07:15:44;;;;;;;0.82;0.82;;;2.00;99.90;;;;;;4956618;29;20023;-78
2021/12/11 07:18:10;;;;;;;0.98;0.57;;;2.10;99.90;;;;;;4938558;29;20062;-78
2021/12/11 07:20:36;;;;;;;0.60;0.60;;;2.00;99.90;;;;;;4938773;29;20031;-78
2021/12/11 07:23:02;;;;;;;0.40;0.40;;;2.00;99.90;;;;;;4939079;29;20403;-78
2021/12/11 07:25:31;;;;;;;0.70;0.70;;;2.00;99.90;;;;;;4938423;29;20035;-79
2021/12/11 07:28:03;;;;;;;0.20;0.20;;;2.10;99.90;;;;;;4956161;29;20020;-78
2021/12/11 07:30:31;;;;;;;0.50;0.50;;;2.10;99.90;;;;;;4938390;29;20108;-78
2021/12/11 07:32:59;;;;;;;0.40;0.40;;;2.10;99.90;;;;;;4948971;29;20031;-79
2021/12/11 07:35:25;;;;;;;0.60;0.47;;;2.10;99.90;;;;;;4945005;29;20148;-78
2021/12/11 07:37:51;;;;;;;0.50;0.50;;;2.20;99.90;;;;;;4921698;29;20058;-81
2021/12/11 07:40:28;;;;;;;0.43;0.43;;;2.50;99.90;;;;;;4920943;29;20043;-78
2021/12/11 07:42:54;;;;;;;0.70;0.70;;;2.20;99.90;;;;;;4923989;29;20038;-76
2021/12/11 07:45:22;;;;;;;0.68;0.68;;;2.20;99.90;;;;;;4926738;29;20091;-78
2021/12/11 07:47:48;;;;;;;0.35;0.35;;;2.20;99.90;;;;;;4927857;29;20011;-78
2021/12/11 07:50:14;;;;;;;1.45;0.70;;;2.20;99.90;;;;;;4917918;29;20488;-78
2021/12/11 07:52:40;;;;;;;0.57;0.57;;;2.20;99.90;;;;;;4918647;29;20586;-78
2021/12/11 07:55:07;;;;;;;0.50;0.50;;;2.20;99.90;;;;;;4935461;29;20024;-78
2021/12/11 07:57:33;;;;;;;1.60;1.50;;;2.30;99.90;;;;;;4916914;29;20035;-79
2021/12/11 07:59:58;;;;;;;0.50;0.50;;;2.30;99.90;;;;;;4917018;29;20095;-78
2021/12/11 08:02:24;;;;;;;0.28;0.28;;;2.30;99.90;;;;;;4934636;29;20528;-79
2021/12/11 08:04:51;;;;;;;0.73;0.73;;;2.30;99.90;;;;;;4920873;29;20043;-80
2021/12/11 08:07:16;;;;;;;1.15;0.88;;;2.30;99.90;;;;;;4921014;29;20216;-79
2021/12/11 08:09:42;;;;;;;0.50;0.50;;;2.30;99.90;;;;;;4923143;29;20034;-78
2021/12/11 08:12:08;;;;;;;1.55;0.82;;;2.40;99.90;;;;;;4909583;29;20020;-78
2021/12/11 08:14:34;;;;;;;0.80;0.50;;;2.30;99.90;;;;;;4924719;29;20028;-78
2021/12/11 08:17:04;;;;;;;1.25;0.82;;;2.40;99.90;;;;;;4945024;29;20047;-83
2021/12/11 08:19:31;;;;;;;1.95;1.10;;;2.40;99.90;;;;;;4928160;29;20028;-78
2021/12/11 08:22:00;;;;;;;2.75;1.13;;;2.50;99.90;;;;;;4940331;29;20032;-82
2021/12/11 08:24:28;;;;;;;2.03;0.77;;;2.40;99.90;;;;;;4953356;29;20031;-77
2021/12/11 08:26:56;;;;;;;4.88;1.70;;;2.40;99.90;;;;;;4952205;29;20015;-81
2021/12/11 08:29:22;;;;;;;3.95;1.67;;;2.40;99.90;;;;;;4948500;29;20086;-90
2021/12/11 08:31:53;;;;;;;1.38;1.13;;;2.50;99.90;;;;;;4955942;29;20031;-91
2021/12/11 08:34:19;;;;;;;1.00;1.00;;;2.50;99.90;;;;;;4944185;29;20023;-83
2021/12/11 08:36:45;;;;;;;4.07;2.17;;;2.50;99.90;;;;;;4957957;29;20098;-90
2021/12/11 08:39:15;;;;;;;1.50;1.17;;;2.50;99.90;;;;;;4942448;29;20030;-91
2021/12/11 08:41:42;;;;;;;0.70;0.70;;;2.60;99.90;;;;;;4928363;29;20118;-87
2021/12/11 08:44:12;;;;;;;1.27;0.90;;;2.60;99.90;;;;;;4951703;28;20047;-77
2021/12/11 08:46:42;;;;;;;1.95;1.58;;;2.60;99.90;;;;;;4945404;29;20023;-82
2021/12/11 08:49:17;;;;;;;1.60;1.17;;;2.60;99.90;;;;;;4951872;29;20023;-84
2021/12/11 08:51:53;;;;;;;1.48;1.38;;;2.70;99.90;;;;;;4959248;29;20055;-84
2021/12/11 08:54:22;;;;;;;1.73;1.58;;;2.70;99.90;;;;;;4956041;29;20345;-77
2021/12/11 08:56:49;;;;;;;0.87;0.87;;;2.70;99.90;;;;;;4943318;29;20555;-78
2021/12/11 08:59:17;;;;;;;1.13;1.02;;;2.70;99.90;;;;;;4937603;29;20318;-82
2021/12/11 09:01:50;;;;;;;1.10;1.00;;;2.80;99.90;;;;;;4956435;29;20054;-78
2021/12/11 09:04:24;;;;;;;0.70;0.70;;;2.80;99.90;;;;;;4945523;29;20028;-83
2021/12/11 09:07:05;;;;;;;0.80;0.80;;;2.90;99.90;;;;;;4938214;29;20027;-92
2021/12/11 09:10:14;;;;;;;0.60;0.60;;;2.80;99.90;;;;;;4937969;29;20106;-86
2021/12/11 09:12:47;;;;;;;0.40;0.40;;;2.90;99.90;;;;;;4935819;29;20031;-84
2021/12/11 09:15:27;;;;;;;0.65;0.65;;;2.90;99.90;;;;;;4952382;29;20066;-90
2021/12/11 09:18:01;;;;;;;0.47;0.47;;;2.90;99.90;;;;;;4937132;29;20024;-78
2021/12/11 09:20:37;;;;;;;0.43;0.43;;;3.00;99.90;;;;;;4921302;29;20481;-79
2021/12/11 09:23:23;;;;;;;0.75;0.75;;;3.10;99.90;;;;;;4918400;29;20408;-75
2021/12/11 09:26:15;;;;;;;0.80;0.77;;;3.10;99.90;;;;;;4922262;29;20082;-76
2021/12/11 09:28:49;;;;;;;0.95;0.50;;;3.10;99.90;;;;;;4917628;29;20508;-77
2021/12/11 09:31:24;;;;;;;0.95;0.95;;;3.10;99.90;;;;;;4932730;29;20051;-77
2021/12/11 09:34:02;;;;;;;0.80;0.60;;;3.10;99.90;;;;;;4917545;29;20234;-77
2021/12/11 09:36:33;;;;;;;1.70;0.93;;;3.20;99.90;;;;;;4915896;29;20065;-76
2021/12/11 09:39:15;;;;;;;0.63;0.63;;;3.20;99.90;;;;;;4917504;29;20092;-77
2021/12/11 09:41:41;;;;;;;1.75;0.77;;;3.20;99.90;;;;;;4916686;29;20617;-77
2021/12/11 09:44:33;;;;;;;0.93;0.93;;;3.20;99.90;;;;;;4916481;29;20200;-78
2021/12/11 09:47:05;;;;;;;1.63;0.65;;;3.20;99.90;;;;;;4916888;29;20032;-77
2021/12/11 09:49:42;;;;;;;1.58;0.80;;;3.20;99.90;;;;;;4926622;29;20058;-76
2021/12/11 09:52:17;;;;;;;0.68;0.60;;;3.20;99.90;;;;;;4929876;29;20477;-78
2021/12/11 09:54:57;;;;;;;0.85;0.85;;;3.20;99.90;;;;;;4932853;29;20015;-77
2021/12/11 09:57:26;;;;;;;0.70;0.60;;;3.20;99.90;;;;;;4934642;29;20043;-78
2021/12/11 09:59:54;;;;;;;1.00;0.60;;;3.30;99.90;;;;;;4915578;29;20055;-77
2021/12/11 10:02:27;;;;;;;0.52;0.52;;;3.30;99.90;;;;;;4916276;29;20031;-77
2021/12/11 10:05:03;;;;;;;1.88;0.95;;;3.20;99.90;;;;;;4919783;29;20377;-79
2021/12/11 10:07:36;;;;;;;0.70;0.70;;;3.20;99.90;;;;;;4925010;29;20023;-83
2021/12/11 10:10:21;;;;;;;0.47;0.40;;;3.20;99.90;;;;;;4954677;28;20039;-82
2021/12/11 10:12:52;;;;;;;0.70;0.70;;;3.20;99.90;;;;;;4942018;28;20016;-80
2021/12/11 10:15:33;;;;;;;0.47;0.47;;;3.40;99.90;;;;;;4922976;28;20035;-84
2021/12/11 10:18:06;;;;;;;0.68;0.68;;;3.80;99.90;;;;;;4922252;29;20103;-81
2021/12/11 10:20:37;;;;;;;0.70;0.70;;;0.50;99.90;;;;;;4920948;28;20012;-81
2021/12/11 10:23:07;;;;;;;1.00;0.80;;;3.40;99.90;;;;;;4943083;28;20076;-81
2021/12/11 10:25:36;;;;;;;1.33;1.17;;;3.40;99.90;;;;;;4942270;28;20028;-78
2021/12/11 10:28:05;;;;;;;1.05;0.95;;;3.40;99.90;;;;;;4926073;29;20043;-78
2021/12/11 10:30:36;;;;;;;1.75;1.20;;;3.40;99.90;;;;;;4936334;29;20035;-78
2021/12/11 10:33:03;;;;;;;1.00;1.00;;;3.40;99.90;;;;;;4935524;29;20020;-77
2021/12/11 10:35:35;;;;;;;0.77;0.77;;;3.40;99.90;;;;;;4923932;29;20028;-78
2021/12/11 10:38:03;;;;;;;0.70;0.70;;;3.30;99.90;;;;;;4928587;29;20388;-78
2021/12/11 10:40:43;;;;;;;0.70;0.63;;;3.30;99.90;;;;;;4937650;29;20036;-77
2021/12/11 10:43:14;;;;;;;0.73;0.73;;;3.30;99.90;;;;;;4936893;29;20074;-82
2021/12/11 10:45:40;;;;;;;1.05;0.63;;;3.30;99.90;;;;;;4936629;29;20028;-79
2021/12/11 10:48:10;;;;;;;0.57;0.57;;;3.30;99.90;;;;;;4937017;29;20636;-79
2021/12/11 10:50:38;;;;;;;;;;;3.30;99.90;;;;;;4919457;29;20095;-77
2021/12/11 10:53:08;;;;;;;1.75;0.90;;;3.20;99.90;;;;;;4919278;29;19925;-78
2021/12/11 10:55:35;;;;;;;2.50;0.88;;;3.20;99.90;;;;;;4916874;29;20111;-78
2021/12/11 10:58:06;;;;;;;0.80;0.80;;;3.10;99.90;;;;;;4925697;29;20023;-77
2021/12/11 11:00:46;;;;;;;0.90;0.90;;;3.10;99.90;;;;;;4929216;29;20248;-78
2021/12/11 11:03:15;;;;;;;0.98;0.95;;;3.10;99.90;;;;;;4942301;29;20067;-77
2021/12/11 11:05:41;;;;;;;1.15;1.05;;;3.10;99.90;;;;;;4944427;29;20360;-78
2021/12/11 11:08:08;;;;;;;1.20;1.10;;;3.10;99.90;;;;;;4921385;29;20024;-77
2021/12/11 11:10:38;;;;;;;1.52;1.42;;;3.10;99.90;;;;;;4925749;29;20209;-77
2021/12/11 11:13:08;;;;;;;1.08;0.98;;;3.10;99.90;;;;;;4939236;29;20027;-77
2021/12/11 11:15:35;;;;;;;8.50;0.98;;;3.10;99.90;;;;;;4932141;29;20046;-77
2021/12/11 11:18:01;;;;;;;1.70;1.10;;;3.20;99.90;;;;;;4941311;29;20114;-77
2021/12/11 11:20:39;;;;;;;0.88;0.88;;;3.20;99.90;;;;;;4918179;29;20608;-77
2021/12/11 11:23:06;;;;;;;1.55;1.38;;;3.20;99.90;;;;;;4936366;29;20480;-77
2021/12/11 11:25:38;;;;;;;1.05;0.88;;;3.20;99.90;;;;;;4918774;29;20404;-78
2021/12/11 11:28:07;;;;;;;1.00;1.00;;;3.30;99.90;;;;;;4920394;29;20026;-85
2021/12/11 11:30:38;;;;;;;;;;;3.20;99.90;;;;;;4937314;29;20123;-77
2021/12/11 11:33:07;;;;;;;0.52;0.52;;;3.30;99.90;;;;;;4918616;29;19914;-76
2021/12/11 11:35:38;;;;;;;0.65;0.65;;;3.30;99.90;;;;;;4937329;29;20035;-77
2021/12/11 11:38:05;;;;;;;1.70;1.27;;;3.30;99.90;;;;;;4935494;29;20099;-76
2021/12/11 11:40:36;;;;;;;1.85;1.08;;;3.30;99.90;;;;;;4937039;29;20023;-77
2021/12/11 11:43:04;;;;;;;2.70;0.98;;;3.30;99.90;;;;;;4918755;29;20051;-77
2021/12/11 11:45:31;;;;;;;0.73;0.73;;;3.30;99.90;;;;;;4918219;29;20032;-77
2021/12/11 11:47:57;;;;;;;1.35;0.75;;;3.30;99.90;;;;;;4933851;29;20110;-77
2021/12/11 11:50:30;;;;;;;3.17;1.23;;;3.30;99.90;;;;;;4934237;29;20663;-77
2021/12/11 11:52:56;;;;;;;1.40;1.30;;;3.30;99.90;;;;;;4936028;29;20063;-77
2021/12/11 11:55:32;;;;;;;1.13;1.10;;;3.30;99.90;;;;;;4935632;29;20534;-77
2021/12/11 11:57:58;;;;;;;1.27;1.17;;;3.30;99.90;;;;;;4935547;29;20031;-77
2021/12/11 12:00:32;;;;;;;1.23;1.10;;;3.40;99.90;;;;;;4920918;29;20027;-77
2021/12/11 12:02:58;;;;;;;0.70;0.70;;;3.40;99.90;;;;;;4927739;29;20331;-78
2021/12/11 12:05:26;;;;;;;1.00;1.00;;;3.30;99.90;;;;;;4926836;29;20070;-77
2021/12/11 12:07:52;;;;;;;1.15;1.02;;;3.30;99.90;;;;;;4945837;29;20019;-77
2021/12/11 12:10:25;;;;;;;1.50;1.00;;;3.30;99.90;;;;;;4944183;29;20552;-77
2021/12/11 12:12:51;;;;;;;1.13;1.13;;;3.30;99.90;;;;;;4928110;29;20118;-76
2021/12/11 12:15:26;;;;;;;2.75;1.80;;;3.30;99.90;;;;;;4943022;29;20027;-76
2021/12/11 12:17:52;;;;;;;3.40;1.45;;;3.40;99.90;;;;;;4923481;29;20030;-78
2021/12/11 12:20:19;;;;;;;0.98;0.95;;;3.30;99.90;;;;;;4917416;29;20481;-78
2021/12/11 12:22:47;;;;;;;1.52;1.42;;;3.40;99.90;;;;;;4917742;29;20046;-78
2021/12/11 12:25:13;;;;;;;3.53;2.05;;;3.40;99.90;;;;;;4918540;29;20035;-77
2021/12/11 12:27:42;;;;;;;2.50;1.30;;;3.40;99.90;;;;;;4915099;29;20122;-78
2021/12/11 12:30:18;;;;;;;2.08;1.88;;;3.30;99.90;;;;;;4887267;29;20488;-77
2021/12/11 12:32:43;;;;;;;2.38;1.63;;;3.40;99.90;;;;;;4909776;29;20435;-78
2021/12/11 12:35:13;;;;;;;0.88;0.88;;;3.40;99.90;;;;;;4913211;29;20023;-78
2021/12/11 12:37:40;;;;;;;1.17;1.08;;;3.40;99.90;;;;;;4913867;29;20421;-78
2021/12/11 12:40:14;;;;;;;1.88;1.35;;;3.40;99.90;;;;;;4913619;29;20028;-78
2021/12/11 12:42:54;;;;;;;1.98;1.48;;;3.40;99.90;;;;;;4930249;29;20419;-78
2021/12/11 12:45:31;;;;;;;1.17;1.10;;;3.50;99.90;;;;;;4933932;29;20028;-78
2021/12/11 12:48:08;;;;;;;1.00;0.95;;;3.40;99.90;;;;;;4930803;29;20149;-78
2021/12/11 12:50:40;;;;;;;1.35;1.35;;;3.50;99.90;;;;;;4930054;29;20036;-78
2021/12/11 12:53:06;;;;;;;1.05;1.02;;;3.50;99.90;;;;;;4930213;29;20042;-78
2021/12/11 12:55:41;;;;;;;1.88;1.75;;;3.50;99.90;;;;;;4912690;29;20027;-78
2021/12/11 12:58:12;;;;;;;4.05;2.22;;;3.50;99.90;;;;;;4928184;29;20107;-78
2021/12/11 13:00:48;;;;;;;1.83;1.58;;;3.40;99.90;;;;;;4911075;29;20425;-78
2021/12/11 13:03:20;;;;;;;3.00;2.53;;;3.30;99.90;;;;;;4928148;29;20046;-78
2021/12/11 13:05:56;;;;;;;3.33;1.27;;;3.20;99.90;;;;;;4927801;29;20028;-78
2021/12/11 13:08:44;;;;;;;1.92;1.58;;;3.30;99.90;;;;;;4926556;29;20528;-77
2021/12/11 13:11:24;;;;;;;4.82;2.80;;;3.30;99.90;;;;;;4909531;29;20032;-78
2021/12/11 13:13:53;;;;;;;3.85;1.42;;;3.20;99.90;;;;;;4914210;29;20060;-78
2021/12/11 13:16:30;;;;;;;8.25;2.50;;;3.20;99.90;;;;;;4958610;28;20067;-84
2021/12/11 13:19:19;;;;;;;17.95;2.25;;;3.20;99.90;;;;;;4941386;28;20024;-82
2021/12/11 13:22:16;;;;;;;3.25;1.15;;;3.20;99.90;;;;;;4941822;29;20035;-82
2021/12/11 13:24:48;;;;;;;2.30;2.10;;;3.20;99.90;;;;;;4939299;29;20460;-81
2021/12/11 13:27:27;;;;;;;2.35;2.17;;;3.20;99.90;;;;;;4935203;29;20058;-80
2021/12/11 13:29:56;;;;;;;2.67;2.47;;;3.20;99.90;;;;;;4924369;29;20039;-80
2021/12/11 13:32:26;;;;;;;2.22;2.03;;;3.20;99.90;;;;;;4933925;28;20114;-83
2021/12/11 13:34:56;;;;;;;2.80;2.58;;;3.20;99.90;;;;;;4936513;29;20019;-82